createdAt,value
2023-04-11T00:00:03.481Z,100.00
2023-04-11T00:03:01.787Z,100.00
2023-04-11T00:05:33.984Z,100.00
2023-04-11T00:08:02.290Z,100.00
2023-04-11T00:10:30.574Z,100.00
2023-04-11T00:12:59.485Z,100.00
2023-04-11T00:15:27.777Z,100.00
2023-04-11T00:17:58.525Z,100.00
2023-04-11T00:20:27.009Z,100.00
2023-04-11T00:22:55.389Z,100.00
2023-04-11T00:25:23.978Z,100.00
2023-04-11T00:27:52.199Z,100.00
2023-04-11T00:30:20.545Z,100.00
2023-04-11T00:32:49.725Z,100.00
2023-04-11T00:35:18.430Z,100.00
2023-04-11T00:37:47.121Z,100.00
2023-04-11T00:40:17.826Z,100.00
2023-04-11T00:42:46.168Z,100.00
2023-04-11T00:45:14.630Z,100.00
2023-04-11T00:47:44.323Z,100.00
2023-04-11T00:50:14.180Z,100.00
2023-04-11T00:52:46.390Z,100.00
2023-04-11T00:55:14.650Z,100.00
2023-04-11T00:57:44.436Z,100.00
2023-04-11T01:00:13.661Z,100.00
2023-04-11T01:02:45.263Z,100.00
2023-04-11T01:05:14.913Z,100.00
2023-04-11T01:07:47.044Z,100.00
2023-04-11T01:10:16.591Z,100.00
2023-04-11T01:12:46.537Z,100.00
2023-04-11T01:15:15.123Z,100.00
2023-04-11T01:17:43.957Z,100.00
2023-04-11T01:20:13.058Z,100.00
2023-04-11T01:22:42.956Z,100.00
2023-04-11T01:25:12.523Z,100.00
2023-04-11T01:27:42.385Z,100.00
2023-04-11T01:30:12.636Z,100.00
2023-04-11T01:32:41.139Z,100.00
2023-04-11T01:35:11.365Z,100.00
2023-04-11T01:37:39.830Z,100.00
2023-04-11T01:40:08.910Z,100.00
2023-04-11T01:42:38.355Z,100.00
2023-04-11T01:45:07.793Z,100.00
2023-04-11T01:47:36.574Z,100.00
2023-04-11T01:50:07.062Z,100.00
2023-04-11T01:52:36.511Z,100.00
2023-04-11T01:55:05.220Z,100.00
2023-04-11T01:57:33.581Z,100.00
2023-04-11T02:00:02.095Z,100.00
2023-04-11T02:02:31.446Z,100.00
2023-04-11T02:04:59.858Z,100.00
2023-04-11T02:07:28.283Z,100.00
2023-04-11T02:09:57.260Z,100.00
2023-04-11T02:12:25.443Z,100.00
2023-04-11T02:14:53.777Z,100.00
2023-04-11T02:17:25.879Z,100.00
2023-04-11T02:19:54.826Z,100.00
2023-04-11T02:22:23.055Z,100.00
2023-04-11T02:24:51.483Z,100.00
2023-04-11T02:27:19.731Z,100.00
2023-04-11T02:29:48.101Z,100.00
2023-04-11T02:32:17.267Z,100.00
2023-04-11T02:34:46.961Z,100.00
2023-04-11T02:37:15.276Z,100.00
2023-04-11T02:39:43.541Z,100.00
2023-04-11T02:42:14.566Z,100.00
2023-04-11T02:44:42.886Z,100.00
2023-04-11T02:47:11.591Z,100.00
2023-04-11T02:49:41.900Z,100.00
2023-04-11T02:52:10.759Z,100.00
2023-04-11T02:54:39.083Z,100.00
2023-04-11T02:57:07.305Z,100.00
2023-04-11T02:59:35.782Z,100.00
2023-04-11T03:02:04.550Z,100.00
2023-04-11T03:04:32.945Z,100.00
2023-04-11T03:07:08.914Z,100.00
2023-04-11T03:09:38.025Z,100.00
2023-04-11T03:12:06.988Z,100.00
2023-04-11T03:14:36.307Z,100.00
2023-04-11T03:17:04.583Z,100.00
2023-04-11T03:19:33.664Z,100.00
2023-04-11T03:22:02.688Z,100.00
2023-04-11T03:24:32.364Z,100.00
2023-04-11T03:27:04.120Z,100.00
2023-04-11T03:29:32.955Z,100.00
2023-04-11T03:32:15.624Z,100.00
2023-04-11T03:34:44.298Z,100.00
2023-04-11T03:37:12.956Z,100.00
2023-04-11T03:39:41.284Z,100.00
2023-04-11T03:42:10.660Z,100.00
2023-04-11T03:44:38.900Z,100.00
2023-04-11T03:47:07.246Z,100.00
2023-04-11T03:49:42.213Z,100.00
2023-04-11T03:52:11.495Z,100.00
2023-04-11T03:54:40.080Z,100.00
2023-04-11T03:57:11.236Z,100.00
2023-04-11T03:59:40.408Z,100.00
2023-04-11T04:02:10.558Z,100.00
2023-04-11T04:04:47.136Z,100.00
2023-04-11T04:07:22.364Z,100.00
2023-04-11T04:09:52.615Z,100.00
2023-04-11T04:12:21.882Z,100.00
2023-04-11T04:15:11.577Z,100.00
2023-04-11T04:17:42.225Z,100.00
2023-04-11T04:20:13.966Z,100.00
2023-04-11T04:22:42.955Z,100.00
2023-04-11T04:25:12.892Z,100.00
2023-04-11T04:27:44.527Z,100.00
2023-04-11T04:30:19.193Z,100.00
2023-04-11T04:33:00.439Z,100.00
2023-04-11T04:35:31.582Z,100.00
2023-04-11T04:38:06.224Z,100.00
2023-04-11T04:40:45.014Z,100.00
2023-04-11T04:43:18.821Z,100.00
2023-04-11T04:46:11.165Z,100.00
2023-04-11T04:48:44.444Z,100.00
2023-04-11T04:51:12.798Z,100.00
2023-04-11T04:53:41.481Z,100.00
2023-04-11T04:56:11.771Z,100.00
2023-04-11T04:58:42.281Z,100.00
2023-04-11T05:01:13.499Z,100.00
2023-04-11T05:03:42.030Z,100.00
2023-04-11T05:06:14.238Z,100.00
2023-04-11T05:08:44.429Z,100.00
2023-04-11T05:11:12.947Z,100.00
2023-04-11T05:13:41.293Z,100.00
2023-04-11T05:16:09.977Z,100.00
2023-04-11T05:18:38.558Z,100.00
2023-04-11T05:21:07.072Z,100.00
2023-04-11T05:23:37.673Z,100.00
2023-04-11T05:26:07.860Z,100.00
2023-04-11T05:28:36.655Z,100.00
2023-04-11T05:31:09.987Z,100.00
2023-04-11T05:33:38.525Z,100.00
2023-04-11T05:36:07.307Z,100.00
2023-04-11T05:38:35.614Z,100.00
2023-04-11T05:41:03.931Z,100.00
2023-04-11T05:43:32.111Z,100.00
2023-04-11T05:46:03.603Z,100.00
2023-04-11T05:48:31.909Z,100.00
2023-04-11T05:51:00.382Z,100.00
2023-04-11T05:53:29.192Z,100.00
2023-04-11T05:55:57.623Z,100.00
2023-04-11T05:58:25.982Z,100.00
2023-04-11T06:00:54.366Z,100.00
2023-04-11T06:03:22.837Z,100.00
2023-04-11T06:05:51.146Z,100.00
2023-04-11T06:08:19.459Z,100.00
2023-04-11T06:10:47.616Z,100.00
2023-04-11T06:13:15.731Z,100.00
2023-04-11T06:15:43.972Z,100.00
2023-04-11T06:18:13.132Z,100.00
2023-04-11T06:20:41.290Z,100.00
2023-04-11T06:23:09.504Z,100.00
2023-04-11T06:25:41.499Z,100.00
2023-04-11T06:28:09.976Z,100.00
2023-04-11T06:30:38.264Z,100.00
2023-04-11T06:33:06.479Z,100.00
2023-04-11T06:35:35.878Z,100.00
2023-04-11T06:38:04.202Z,100.00
2023-04-11T06:40:32.557Z,100.00
2023-04-11T06:43:04.479Z,100.00
2023-04-11T06:45:33.241Z,100.00
2023-04-11T06:48:01.699Z,100.00
2023-04-11T06:50:29.964Z,100.00
2023-04-11T06:52:58.434Z,100.00
2023-04-11T06:55:27.224Z,100.00
2023-04-11T06:57:55.419Z,100.00
2023-04-11T07:00:23.998Z,100.00
2023-04-11T07:02:52.757Z,100.00
2023-04-11T07:05:21.295Z,100.00
2023-04-11T07:07:49.520Z,100.00
2023-04-11T07:10:17.977Z,100.00
2023-04-11T07:12:46.288Z,100.00
2023-04-11T07:15:14.671Z,100.00
2023-04-11T07:17:43.046Z,100.00
2023-04-11T07:20:12.027Z,100.00
2023-04-11T07:22:43.437Z,100.00
2023-04-11T07:25:11.817Z,100.00
2023-04-11T07:27:43.856Z,100.00
2023-04-11T07:30:12.739Z,100.00
2023-04-11T07:32:40.990Z,100.00
2023-04-11T07:35:10.301Z,100.00
2023-04-11T07:37:38.610Z,100.00
2023-04-11T07:40:11.853Z,100.00
2023-04-11T07:42:40.983Z,100.00
2023-04-11T07:45:09.578Z,100.00
2023-04-11T07:47:38.022Z,100.00
2023-04-11T07:50:34.478Z,100.00
2023-04-11T07:53:03.385Z,100.00
2023-04-11T07:55:31.743Z,100.00
2023-04-11T07:58:00.185Z,100.00
2023-04-11T08:00:30.517Z,100.00
2023-04-11T08:03:09.717Z,100.00
2023-04-11T08:05:41.427Z,99.36
2023-04-11T08:08:09.837Z,97.95
2023-04-11T08:10:38.007Z,98.22
2023-04-11T08:13:08.227Z,97.45
2023-04-11T08:15:38.899Z,96.91
2023-04-11T08:18:07.125Z,96.39
2023-04-11T08:20:35.364Z,95.46
2023-04-11T08:23:09.876Z,94.30
2023-04-11T08:25:39.265Z,93.40
2023-04-11T08:28:10.086Z,91.27
2023-04-11T08:30:38.479Z,91.38
2023-04-11T08:33:07.253Z,91.19
2023-04-11T08:35:35.573Z,90.23
2023-04-11T08:38:03.688Z,88.39
2023-04-11T08:40:34.500Z,88.51
2023-04-11T08:43:55.479Z,88.42
2023-04-11T08:46:24.211Z,87.56
2023-04-11T08:48:52.552Z,86.88
2023-04-11T08:51:23.121Z,87.77
2023-04-11T08:53:58.047Z,85.88
2023-04-11T08:56:26.933Z,83.48
2023-04-11T08:59:00.992Z,83.49
2023-04-11T09:01:32.924Z,83.82
2023-04-11T09:04:05.058Z,81.11
2023-04-11T09:06:36.793Z,78.78
2023-04-11T09:09:05.538Z,81.04
2023-04-11T09:12:07.521Z,81.37
2023-04-11T09:14:38.650Z,79.20
2023-04-11T09:17:13.656Z,77.01
2023-04-11T09:19:42.961Z,77.91
2023-04-11T09:22:12.814Z,79.41
2023-04-11T09:24:41.189Z,78.29
2023-04-11T09:27:09.508Z,76.99
2023-04-11T09:29:49.006Z,76.19
2023-04-11T09:32:35.178Z,78.02
2023-04-11T09:35:09.812Z,78.68
2023-04-11T09:38:03.544Z,78.79
2023-04-11T09:40:42.442Z,77.76
2023-04-11T09:43:10.732Z,77.49
2023-04-11T09:45:51.839Z,77.46
2023-04-11T09:48:32.112Z,77.90
2023-04-11T09:51:09.148Z,76.11
2023-04-11T09:53:38.035Z,75.36
2023-04-11T09:56:07.718Z,74.67
2023-04-11T09:58:38.789Z,71.23
2023-04-11T10:01:09.578Z,72.35
2023-04-11T10:03:40.011Z,71.80
2023-04-11T10:06:31.871Z,73.17
2023-04-11T10:09:14.137Z,70.94
2023-04-11T10:11:45.136Z,71.56
2023-04-11T10:14:37.933Z,71.55
2023-04-11T10:17:20.604Z,69.83
2023-04-11T10:19:56.700Z,68.91
2023-04-11T10:22:58.129Z,67.46
2023-04-11T10:25:27.302Z,69.16
2023-04-11T10:28:01.681Z,68.42
2023-04-11T10:31:03.055Z,67.08
2023-04-11T10:33:32.319Z,68.00
2023-04-11T10:36:03.717Z,66.58
2023-04-11T10:38:41.560Z,66.99
2023-04-11T10:41:18.652Z,66.60
2023-04-11T10:43:47.446Z,64.16
2023-04-11T10:46:26.145Z,62.73
2023-04-11T10:49:01.559Z,62.45
2023-04-11T10:51:34.829Z,61.90
2023-04-11T10:54:03.491Z,60.33
2023-04-11T10:56:47.147Z,59.71
2023-04-11T10:59:36.218Z,58.22
2023-04-11T11:02:04.643Z,58.13
2023-04-11T11:04:38.701Z,59.63
2023-04-11T11:07:12.426Z,60.52
2023-04-11T11:09:40.712Z,60.03
2023-04-11T11:12:13.760Z,58.84
2023-04-11T11:14:44.065Z,59.49
2023-04-11T11:17:16.366Z,58.03
2023-04-11T11:19:46.340Z,54.97
2023-04-11T11:22:25.515Z,54.48
2023-04-11T11:24:54.109Z,53.71
2023-04-11T11:27:24.334Z,55.11
2023-04-11T11:30:00.556Z,55.60
2023-04-11T11:32:29.224Z,56.07
2023-04-11T11:34:58.914Z,54.78
2023-04-11T11:37:27.318Z,51.59
2023-04-11T11:39:55.859Z,53.03
2023-04-11T11:42:24.036Z,52.84
2023-04-11T11:44:52.114Z,51.96
2023-04-11T11:47:20.560Z,52.44
2023-04-11T11:49:56.224Z,55.42
2023-04-11T11:52:41.350Z,56.71
2023-04-11T11:55:31.261Z,57.24
2023-04-11T11:58:05.865Z,56.48
2023-04-11T12:00:42.702Z,55.67
2023-04-11T12:03:11.196Z,56.08
2023-04-11T12:05:41.623Z,55.68
2023-04-11T12:08:11.115Z,56.66
2023-04-11T12:10:42.247Z,58.32
2023-04-11T12:13:20.034Z,57.90
2023-04-11T12:15:55.924Z,56.62
2023-04-11T12:18:28.624Z,57.29
2023-04-11T12:20:59.796Z,58.13
2023-04-11T12:23:28.133Z,58.26
2023-04-11T12:25:56.431Z,58.00
2023-04-11T12:28:27.698Z,57.84
2023-04-11T12:30:59.142Z,57.82
2023-04-11T12:33:29.804Z,58.17
2023-04-11T12:35:58.011Z,58.22
2023-04-11T12:38:26.334Z,56.13
2023-04-11T12:41:13.984Z,55.13
2023-04-11T12:43:42.917Z,54.29
2023-04-11T12:46:11.662Z,54.97
2023-04-11T12:48:39.979Z,56.43
2023-04-11T12:51:08.172Z,55.84
2023-04-11T12:53:36.610Z,55.76
2023-04-11T12:56:05.619Z,56.17
2023-04-11T12:58:34.036Z,56.24
2023-04-11T13:01:02.562Z,54.43
2023-04-11T13:03:31.141Z,50.62
2023-04-11T13:05:59.396Z,49.10
2023-04-11T13:08:28.436Z,51.10
2023-04-11T13:10:59.722Z,51.76
2023-04-11T13:13:30.071Z,51.70
2023-04-11T13:16:00.916Z,51.74
2023-04-11T13:18:29.237Z,52.66
2023-04-11T13:20:57.359Z,52.82
2023-04-11T13:23:25.572Z,52.33
2023-04-11T13:25:53.862Z,52.88
2023-04-11T13:28:25.062Z,52.94
2023-04-11T13:30:53.242Z,54.33
2023-04-11T13:33:21.558Z,54.23
2023-04-11T13:35:49.643Z,53.98
2023-04-11T13:38:17.806Z,54.72
2023-04-11T13:40:48.705Z,54.64
2023-04-11T13:43:17.464Z,54.24
2023-04-11T13:45:45.650Z,55.05
2023-04-11T13:48:15.852Z,55.04
2023-04-11T13:50:47.062Z,56.14
2023-04-11T13:53:15.538Z,55.53
2023-04-11T13:55:45.113Z,55.10
2023-04-11T13:58:14.418Z,54.32
2023-04-11T14:00:44.851Z,53.53
2023-04-11T14:03:24.661Z,52.58
2023-04-11T14:05:53.856Z,51.63
2023-04-11T14:08:24.930Z,51.73
2023-04-11T14:10:53.170Z,51.65
2023-04-11T14:13:21.524Z,51.79
2023-04-11T14:16:00.947Z,50.50
2023-04-11T14:18:36.391Z,51.77
2023-04-11T14:21:15.634Z,52.11
2023-04-11T14:23:43.875Z,50.23
2023-04-11T14:28:54.182Z,53.61
2023-04-11T14:31:25.874Z,51.94
2023-04-11T14:33:54.357Z,52.05
2023-04-11T14:36:22.561Z,52.72
2023-04-11T14:38:50.902Z,51.49
2023-04-11T14:41:21.985Z,51.82
2023-04-11T14:43:50.192Z,52.23
2023-04-11T14:46:18.519Z,52.61
2023-04-11T14:48:46.868Z,53.20
2023-04-11T14:51:15.065Z,54.01
2023-04-11T14:53:43.369Z,53.04
2023-04-11T14:56:11.501Z,52.70
2023-04-11T14:58:42.240Z,53.85
2023-04-11T15:01:10.445Z,54.77
2023-04-11T15:03:39.089Z,54.43
2023-04-11T15:06:07.835Z,54.40
2023-04-11T15:08:36.532Z,54.54
2023-04-11T15:11:07.177Z,54.72
2023-04-11T15:13:35.564Z,55.07
2023-04-11T15:16:04.210Z,55.21
2023-04-11T15:18:35.358Z,55.61
2023-04-11T15:21:03.836Z,55.49
2023-04-11T15:23:33.125Z,55.92
2023-04-11T15:26:02.993Z,56.48
2023-04-11T15:28:33.085Z,57.35
2023-04-11T15:31:02.652Z,57.71
2023-04-11T15:33:33.654Z,57.82
2023-04-11T15:36:02.372Z,57.53
2023-04-11T15:38:30.758Z,57.42
2023-04-11T15:41:01.951Z,58.11
2023-04-11T15:43:34.814Z,59.12
2023-04-11T15:46:06.689Z,59.12
2023-04-11T15:48:34.994Z,58.62
2023-04-11T15:51:10.954Z,58.61
2023-04-11T15:53:39.160Z,58.38
2023-04-11T15:56:08.474Z,59.24
2023-04-11T15:58:39.531Z,61.15
2023-04-11T16:01:18.690Z,62.78
2023-04-11T16:03:47.156Z,64.66
2023-04-11T16:06:15.794Z,66.28
2023-04-11T16:08:44.579Z,67.32
2023-04-11T16:11:12.720Z,68.23
2023-04-11T16:13:44.120Z,69.11
2023-04-11T16:16:12.487Z,71.14
2023-04-11T16:18:40.862Z,72.46
2023-04-11T16:21:14.428Z,73.56
2023-04-11T16:23:43.173Z,74.61
2023-04-11T16:26:11.641Z,76.43
2023-04-11T16:28:39.892Z,77.17
2023-04-11T16:31:09.332Z,77.72
2023-04-11T16:33:37.714Z,78.02
2023-04-11T16:36:06.432Z,78.32
2023-04-11T16:38:41.494Z,78.91
2023-04-11T16:41:09.735Z,80.13
2023-04-11T16:43:37.992Z,80.95
2023-04-11T16:46:12.459Z,81.37
2023-04-11T16:48:43.065Z,82.32
2023-04-11T16:51:21.075Z,82.64
2023-04-11T16:53:58.242Z,82.69
2023-04-11T16:56:33.449Z,82.42
2023-04-11T16:59:25.247Z,82.53
2023-04-11T17:01:59.297Z,82.57
2023-04-11T17:04:33.510Z,83.76
2023-04-11T17:07:18.246Z,85.00
2023-04-11T17:09:49.844Z,86.08
2023-04-11T17:12:17.946Z,86.50
2023-04-11T17:14:47.687Z,87.05
2023-04-11T17:17:20.546Z,87.67
2023-04-11T17:19:52.421Z,88.62
2023-04-11T17:22:21.049Z,90.36
2023-04-11T17:24:51.977Z,89.55
2023-04-11T17:27:20.470Z,90.12
2023-04-11T17:29:49.005Z,90.37
2023-04-11T17:32:17.445Z,90.76
2023-04-11T17:34:45.917Z,90.75
2023-04-11T17:37:14.302Z,90.73
2023-04-11T17:39:43.835Z,91.33
2023-04-11T17:42:13.991Z,92.25
2023-04-11T17:44:42.370Z,93.34
2023-04-11T17:47:10.852Z,93.85
2023-04-11T17:49:39.091Z,94.00
2023-04-11T17:52:08.783Z,94.35
2023-04-11T17:54:37.703Z,94.52
2023-04-11T17:57:07.745Z,95.19
2023-04-11T17:59:36.152Z,95.34
2023-04-11T18:02:05.416Z,95.55
2023-04-11T18:04:34.211Z,95.90
2023-04-11T18:07:02.973Z,96.14
2023-04-11T18:09:31.967Z,96.41
2023-04-11T18:12:00.828Z,96.73
2023-04-11T18:14:30.584Z,96.63
2023-04-11T18:16:58.904Z,97.04
2023-04-11T18:19:27.364Z,97.10
2023-04-11T18:21:56.081Z,97.25
2023-04-11T18:24:24.431Z,97.52
2023-04-11T18:26:52.814Z,97.73
2023-04-11T18:29:21.172Z,97.81
2023-04-11T18:31:49.492Z,98.34
2023-04-11T18:34:18.044Z,98.22
2023-04-11T18:36:47.294Z,98.49
2023-04-11T18:39:17.653Z,98.77
2023-04-11T18:41:46.765Z,99.03
2023-04-11T18:44:15.583Z,99.11
2023-04-11T18:46:44.326Z,99.02
2023-04-11T18:49:15.137Z,99.35
2023-04-11T18:51:52.883Z,99.43
2023-04-11T18:54:22.461Z,99.33
2023-04-11T18:56:53.802Z,99.05
2023-04-11T18:59:25.647Z,99.35
2023-04-11T19:01:56.882Z,99.47
2023-04-11T19:04:25.862Z,99.67
2023-04-11T19:06:54.379Z,99.88
2023-04-11T19:09:23.267Z,99.98
2023-04-11T19:11:52.872Z,100.00
2023-04-11T19:14:21.754Z,100.00
2023-04-11T19:16:50.624Z,100.00
2023-04-11T19:19:18.958Z,100.00
2023-04-11T19:21:48.910Z,100.00
2023-04-11T19:24:17.330Z,100.00
2023-04-11T19:26:45.526Z,100.00
2023-04-11T19:29:13.809Z,100.00
2023-04-11T19:31:42.281Z,100.00
2023-04-11T19:34:10.905Z,100.00
2023-04-11T19:36:39.190Z,100.00
2023-04-11T19:39:08.357Z,100.00
2023-04-11T19:41:37.338Z,100.00
2023-04-11T19:44:05.751Z,100.00
2023-04-11T19:46:34.098Z,100.00
2023-04-11T19:49:02.598Z,100.00
2023-04-11T19:51:30.933Z,100.00
2023-04-11T19:53:59.643Z,100.00
2023-04-11T19:56:28.215Z,100.00
2023-04-11T19:58:56.656Z,100.00
2023-04-11T20:01:25.167Z,100.00
2023-04-11T20:03:53.699Z,100.00
2023-04-11T20:06:22.807Z,100.00
2023-04-11T20:08:51.144Z,100.00
2023-04-11T20:11:22.100Z,100.00
2023-04-11T20:13:50.420Z,100.00
2023-04-11T20:16:22.685Z,100.00
2023-04-11T20:18:59.011Z,100.00
2023-04-11T20:21:28.001Z,100.00
2023-04-11T20:23:57.588Z,100.00
2023-04-11T20:26:27.265Z,100.00
2023-04-11T20:28:58.297Z,100.00
2023-04-11T20:31:26.604Z,100.00
2023-04-11T20:33:55.059Z,100.00
2023-04-11T20:36:24.608Z,100.00
2023-04-11T20:38:53.044Z,100.00
2023-04-11T20:41:22.352Z,100.00
2023-04-11T20:43:52.168Z,100.00
2023-04-11T20:46:21.742Z,100.00
2023-04-11T20:48:50.120Z,100.00
2023-04-11T20:51:22.217Z,100.00
2023-04-11T20:53:50.948Z,100.00
2023-04-11T20:56:19.303Z,100.00
2023-04-11T20:58:47.566Z,100.00
2023-04-11T21:01:16.038Z,100.00
2023-04-11T21:03:45.103Z,100.00
2023-04-11T21:06:13.497Z,100.00
2023-04-11T21:08:41.741Z,100.00
2023-04-11T21:11:09.962Z,100.00
2023-04-11T21:13:38.263Z,100.00
2023-04-11T21:16:06.923Z,100.00
2023-04-11T21:18:35.219Z,100.00
2023-04-11T21:21:06.699Z,100.00
2023-04-11T21:23:35.343Z,100.00
2023-04-11T21:26:03.714Z,100.00
2023-04-11T21:28:32.224Z,100.00
2023-04-11T21:31:00.573Z,100.00
2023-04-11T21:33:28.786Z,100.00
2023-04-11T21:35:57.313Z,100.00
2023-04-11T21:38:25.634Z,100.00
2023-04-11T21:40:53.933Z,100.00
2023-04-11T21:43:22.200Z,100.00
2023-04-11T21:45:50.555Z,100.00
2023-04-11T21:48:18.901Z,100.00
2023-04-11T21:50:48.330Z,100.00
2023-04-11T21:53:17.022Z,100.00
2023-04-11T21:55:46.678Z,100.00
2023-04-11T21:58:27.908Z,100.00
2023-04-11T22:00:57.852Z,100.00
2023-04-11T22:03:29.020Z,100.00
2023-04-11T22:06:00.863Z,100.00
2023-04-11T22:08:29.484Z,100.00
2023-04-11T22:10:57.990Z,100.00
2023-04-11T22:13:26.453Z,100.00
2023-04-11T22:16:05.524Z,100.00
2023-04-11T22:18:46.437Z,100.00
2023-04-11T22:21:20.496Z,100.00
2023-04-11T22:23:54.498Z,100.00
2023-04-11T22:26:34.798Z,100.00
2023-04-11T22:29:06.475Z,100.00
2023-04-11T22:31:35.111Z,100.00
2023-04-11T22:34:03.648Z,100.00
2023-04-11T22:36:35.934Z,100.00
2023-04-11T22:39:46.693Z,100.00
2023-04-11T22:42:15.428Z,100.00
2023-04-11T22:44:49.806Z,100.00
2023-04-11T22:47:21.792Z,100.00
2023-04-11T22:49:50.612Z,100.00
2023-04-11T22:52:24.285Z,100.00
2023-04-11T22:54:52.722Z,100.00
2023-04-11T22:57:21.515Z,100.00
2023-04-11T22:59:49.727Z,100.00
2023-04-11T23:02:18.025Z,100.00
2023-04-11T23:04:46.476Z,100.00
2023-04-11T23:07:17.071Z,100.00
2023-04-11T23:09:45.314Z,100.00
2023-04-11T23:12:13.678Z,100.00
2023-04-11T23:14:42.308Z,100.00
2023-04-11T23:17:10.543Z,100.00
2023-04-11T23:19:39.386Z,100.00
2023-04-11T23:22:08.437Z,100.00
2023-04-11T23:24:36.698Z,100.00
2023-04-11T23:27:05.011Z,100.00
2023-04-11T23:29:33.321Z,100.00
2023-04-11T23:32:01.785Z,100.00
2023-04-11T23:34:30.661Z,100.00
2023-04-11T23:36:59.865Z,100.00
2023-04-11T23:39:28.174Z,100.00
2023-04-11T23:41:57.186Z,100.00
2023-04-11T23:44:25.545Z,100.00
2023-04-11T23:46:53.772Z,100.00
2023-04-11T23:49:22.202Z,100.00
2023-04-11T23:51:50.710Z,100.00
2023-04-11T23:54:19.031Z,100.00
2023-04-11T23:56:47.423Z,100.00
2023-04-11T23:59:16.256Z,100.00
